createdAt,value
2019-01-15T00:00:11.129Z,312.71
2019-01-15T00:01:11.129Z,313.00
2019-01-15T00:02:11.121Z,313.13
2019-01-15T00:03:11.129Z,312.50
2019-01-15T00:04:11.092Z,312.65
2019-01-15T00:05:11.077Z,312.60
2019-01-15T00:06:11.067Z,312.78
2019-01-15T00:07:11.066Z,312.73
2019-01-15T00:08:11.096Z,312.74
2019-01-15T00:09:11.041Z,312.73
2019-01-15T00:10:11.040Z,312.62
2019-01-15T00:11:11.019Z,312.41
2019-01-15T00:12:10.998Z,312.60
2019-01-15T00:13:10.996Z,312.87
2019-01-15T00:14:11.010Z,312.67
2019-01-15T00:15:11.014Z,313.23
2019-01-15T00:16:10.965Z,312.89
2019-01-15T00:17:10.948Z,312.60
2019-01-15T00:18:10.940Z,312.40
2019-01-15T00:19:10.940Z,312.58
2019-01-15T00:20:10.926Z,312.73
2019-01-15T00:21:10.932Z,312.40
2019-01-15T00:22:10.893Z,312.45
2019-01-15T00:23:10.880Z,312.66
2019-01-15T00:24:10.871Z,312.99
2019-01-15T00:25:10.862Z,312.42
2019-01-15T00:26:10.869Z,312.71
2019-01-15T00:27:10.850Z,313.07
2019-01-15T00:28:10.837Z,312.91
2019-01-15T00:29:10.829Z,312.58
2019-01-15T00:30:10.813Z,312.67
2019-01-15T00:31:10.810Z,312.53
2019-01-15T00:32:10.785Z,312.57
2019-01-15T00:33:10.784Z,312.01
2019-01-15T00:34:10.767Z,312.19
2019-01-15T00:35:10.765Z,312.30
2019-01-15T00:36:10.800Z,312.16
2019-01-15T00:37:10.721Z,312.24
2019-01-15T00:38:10.720Z,312.52
2019-01-15T00:39:10.713Z,312.32
2019-01-15T00:40:10.702Z,312.55
2019-01-15T00:41:10.698Z,312.06
2019-01-15T00:42:15.300Z,312.05
2019-01-15T00:43:10.654Z,312.38
2019-01-15T00:44:10.643Z,312.39
2019-01-15T00:45:10.692Z,312.65
2019-01-15T00:46:10.644Z,312.13
2019-01-15T00:47:10.627Z,312.30
2019-01-15T00:48:10.634Z,312.10
2019-01-15T00:49:10.624Z,312.47
2019-01-15T00:50:10.616Z,312.33
2019-01-15T00:51:10.585Z,312.46
2019-01-15T00:52:10.575Z,312.47
2019-01-15T00:53:10.566Z,311.85
2019-01-15T00:54:10.557Z,312.30
2019-01-15T00:55:10.534Z,312.35
2019-01-15T00:56:10.544Z,312.12
2019-01-15T00:57:10.510Z,312.02
2019-01-15T00:58:10.516Z,312.40
2019-01-15T00:59:10.496Z,311.83
2019-01-15T01:00:10.500Z,312.07
2019-01-15T01:01:10.472Z,312.15
2019-01-15T01:02:10.468Z,312.02
2019-01-15T01:03:10.473Z,312.57
2019-01-15T01:04:10.433Z,312.32
2019-01-15T01:05:10.439Z,311.86
2019-01-15T01:06:10.437Z,312.09
2019-01-15T01:07:10.409Z,312.12
2019-01-15T01:08:10.390Z,312.17
2019-01-15T01:09:10.411Z,312.20
2019-01-15T01:10:10.375Z,311.71
2019-01-15T01:11:10.367Z,312.07
2019-01-15T01:12:10.366Z,311.88
2019-01-15T01:13:10.346Z,312.25
2019-01-15T01:14:10.359Z,312.76
2019-01-15T01:15:10.327Z,312.86
2019-01-15T01:16:10.307Z,312.19
2019-01-15T01:17:10.301Z,312.02
2019-01-15T01:18:10.303Z,312.02
2019-01-15T01:19:10.280Z,312.16
2019-01-15T01:20:10.266Z,312.41
2019-01-15T01:21:10.281Z,312.32
2019-01-15T01:22:10.246Z,312.10
2019-01-15T01:23:10.240Z,312.07
2019-01-15T01:24:10.226Z,312.41
2019-01-15T01:25:10.210Z,312.20
2019-01-15T01:26:10.200Z,312.23
2019-01-15T01:27:10.218Z,312.08
2019-01-15T01:28:10.173Z,311.89
2019-01-15T01:29:10.221Z,312.25
2019-01-15T01:30:10.145Z,317.28
2019-01-15T01:31:10.149Z,312.97
2019-01-15T01:32:10.132Z,312.53
2019-01-15T01:33:10.165Z,311.99
2019-01-15T01:34:10.113Z,312.03
2019-01-15T01:35:10.101Z,312.63
2019-01-15T01:36:10.083Z,312.52
2019-01-15T01:37:10.087Z,312.62
2019-01-15T01:38:10.090Z,311.98
2019-01-15T01:39:10.051Z,312.19
2019-01-15T01:40:10.075Z,311.86
2019-01-15T01:41:10.025Z,312.32
2019-01-15T01:42:10.018Z,311.90
2019-01-15T01:43:10.044Z,312.25
2019-01-15T01:44:10.025Z,312.58
2019-01-15T01:45:09.991Z,312.27
2019-01-15T01:46:09.992Z,312.31
2019-01-15T01:47:09.959Z,311.78
2019-01-15T01:48:09.998Z,312.09
2019-01-15T01:49:09.945Z,312.30
2019-01-15T01:50:09.941Z,312.12
2019-01-15T01:51:09.926Z,311.98
2019-01-15T01:52:09.923Z,311.73
2019-01-15T01:53:09.900Z,312.19
2019-01-15T01:54:09.905Z,312.20
2019-01-15T01:55:09.883Z,312.32
2019-01-15T01:56:09.886Z,312.09
2019-01-15T01:57:09.870Z,311.90
2019-01-15T01:58:10.146Z,312.23
2019-01-15T01:59:09.851Z,312.04
2019-01-15T02:00:09.824Z,312.10
2019-01-15T02:01:09.813Z,311.75
2019-01-15T02:02:09.815Z,312.07
2019-01-15T02:03:09.826Z,311.66
2019-01-15T02:04:09.798Z,312.96
2019-01-15T02:05:09.809Z,312.32
2019-01-15T02:06:09.774Z,312.63
2019-01-15T02:07:09.752Z,311.94
2019-01-15T02:08:09.733Z,311.88
2019-01-15T02:09:09.734Z,311.50
2019-01-15T02:10:09.735Z,311.91
2019-01-15T02:11:09.720Z,311.76
2019-01-15T02:12:09.692Z,311.78
2019-01-15T02:13:09.685Z,311.89
2019-01-15T02:14:09.704Z,312.15
2019-01-15T02:15:09.672Z,312.13
2019-01-15T02:16:09.676Z,311.63
2019-01-15T02:17:09.651Z,312.33
2019-01-15T02:18:09.635Z,311.86
2019-01-15T02:19:09.623Z,311.79
2019-01-15T02:20:09.630Z,311.99
2019-01-15T02:21:09.980Z,312.30
2019-01-15T02:22:09.582Z,312.06
2019-01-15T02:23:09.582Z,312.24
2019-01-15T02:24:09.583Z,312.14
2019-01-15T02:25:09.562Z,312.11
2019-01-15T02:26:09.555Z,312.19
2019-01-15T02:27:09.555Z,312.88
2019-01-15T02:28:09.540Z,312.37
2019-01-15T02:29:09.518Z,312.33
2019-01-15T02:30:09.561Z,312.32
2019-01-15T02:31:09.490Z,312.29
2019-01-15T02:32:09.512Z,312.11
2019-01-15T02:33:09.473Z,312.51
2019-01-15T02:34:09.452Z,312.59
2019-01-15T02:35:09.457Z,312.70
2019-01-15T02:36:09.472Z,312.50
2019-01-15T02:37:09.438Z,312.45
2019-01-15T02:38:09.444Z,313.21
2019-01-15T02:39:09.410Z,312.35
2019-01-15T02:40:09.387Z,312.42
2019-01-15T02:41:09.390Z,312.06
2019-01-15T02:42:09.380Z,312.49
2019-01-15T02:43:09.377Z,312.10
2019-01-15T02:44:09.351Z,312.66
2019-01-15T02:45:09.337Z,312.49
2019-01-15T02:46:09.320Z,313.04
2019-01-15T02:47:09.332Z,313.12
2019-01-15T02:48:09.345Z,312.25
2019-01-15T02:49:09.303Z,312.67
2019-01-15T02:50:09.290Z,311.95
2019-01-15T02:51:09.272Z,312.10
2019-01-15T02:52:09.257Z,312.22
2019-01-15T02:53:09.249Z,311.97
2019-01-15T02:54:09.273Z,312.56
2019-01-15T02:55:09.237Z,311.87
2019-01-15T02:56:09.222Z,312.10
2019-01-15T02:57:09.202Z,312.54
2019-01-15T02:58:09.198Z,311.82
2019-01-15T02:59:09.211Z,312.67
2019-01-15T03:00:09.194Z,312.27
2019-01-15T03:01:09.166Z,312.53
2019-01-15T03:02:09.174Z,311.71
2019-01-15T03:03:09.168Z,311.89
2019-01-15T03:04:09.157Z,311.82
2019-01-15T03:05:09.123Z,311.96
2019-01-15T03:06:09.109Z,312.31
2019-01-15T03:07:09.101Z,311.85
2019-01-15T03:08:09.095Z,311.86
2019-01-15T03:09:09.081Z,311.90
2019-01-15T03:10:09.146Z,311.74
2019-01-15T03:11:09.058Z,311.86
2019-01-15T03:12:09.042Z,311.85
2019-01-15T03:13:09.038Z,311.53
2019-01-15T03:14:09.036Z,311.55
2019-01-15T03:15:09.060Z,311.89
2019-01-15T03:16:08.995Z,311.62
2019-01-15T03:17:08.985Z,311.76
2019-01-15T03:18:08.976Z,312.11
2019-01-15T03:19:08.976Z,312.62
2019-01-15T03:20:08.960Z,312.45
2019-01-15T03:21:08.977Z,312.17
2019-01-15T03:22:08.937Z,312.30
2019-01-15T03:23:08.937Z,311.59
2019-01-15T03:24:08.917Z,312.11
2019-01-15T03:25:08.902Z,312.30
2019-01-15T03:26:08.919Z,312.32
2019-01-15T03:27:08.900Z,312.49
2019-01-15T03:28:08.886Z,311.75
2019-01-15T03:29:08.869Z,312.08
2019-01-15T03:30:08.846Z,311.91
2019-01-15T03:31:08.850Z,312.22
2019-01-15T03:32:08.863Z,312.15
2019-01-15T03:33:08.841Z,312.38
2019-01-15T03:34:08.816Z,312.11
2019-01-15T03:35:08.822Z,312.84
2019-01-15T03:36:08.785Z,312.52
2019-01-15T03:37:08.809Z,312.54
2019-01-15T03:38:08.778Z,312.40
2019-01-15T03:39:08.774Z,312.27
2019-01-15T03:40:08.755Z,312.20
2019-01-15T03:41:08.736Z,312.19
2019-01-15T03:42:08.731Z,312.27
2019-01-15T03:43:08.742Z,312.29
2019-01-15T03:44:08.691Z,312.45
2019-01-15T03:45:08.704Z,312.55
2019-01-15T03:46:08.687Z,312.37
2019-01-15T03:47:08.665Z,312.41
2019-01-15T03:48:08.674Z,312.25
2019-01-15T03:49:08.635Z,312.04
2019-01-15T03:50:08.626Z,312.52
2019-01-15T03:51:08.639Z,312.44
2019-01-15T03:52:08.642Z,312.54
2019-01-15T03:53:08.627Z,312.62
2019-01-15T03:54:08.594Z,312.70
2019-01-15T03:55:08.574Z,312.85
2019-01-15T03:56:08.578Z,313.45
2019-01-15T03:57:08.560Z,313.74
2019-01-15T03:58:08.537Z,313.79
2019-01-15T03:59:08.566Z,313.08
2019-01-15T04:00:08.535Z,313.08
2019-01-15T04:01:08.507Z,313.16
2019-01-15T04:02:08.494Z,313.14
2019-01-15T04:03:08.488Z,313.00
2019-01-15T04:04:08.486Z,313.23
2019-01-15T04:05:08.492Z,314.46
2019-01-15T04:06:08.472Z,313.37
2019-01-15T04:07:08.439Z,313.30
2019-01-15T04:08:08.455Z,313.23
2019-01-15T04:09:08.420Z,312.84
2019-01-15T04:10:08.429Z,312.74
2019-01-15T04:11:08.425Z,313.09
2019-01-15T04:12:08.410Z,313.61
2019-01-15T04:13:11.431Z,313.22
2019-01-15T04:14:08.383Z,312.97
2019-01-15T04:15:08.394Z,312.86
2019-01-15T04:16:08.361Z,312.88
2019-01-15T04:17:08.362Z,312.50
2019-01-15T04:18:08.340Z,312.95
2019-01-15T04:19:08.311Z,314.58
2019-01-15T04:20:08.303Z,312.87
2019-01-15T04:21:08.309Z,313.04
2019-01-15T04:22:08.286Z,312.67
2019-01-15T04:23:08.278Z,313.21
2019-01-15T04:24:08.273Z,314.52
2019-01-15T04:25:08.265Z,313.07
2019-01-15T04:26:08.269Z,313.03
2019-01-15T04:27:08.231Z,313.03
2019-01-15T04:28:08.236Z,313.02
2019-01-15T04:29:08.210Z,313.30
2019-01-15T04:30:08.199Z,313.01
2019-01-15T04:31:08.198Z,313.00
2019-01-15T04:32:08.207Z,313.40
2019-01-15T04:33:08.213Z,313.25
2019-01-15T04:34:08.155Z,313.45
2019-01-15T04:35:08.150Z,313.14
2019-01-15T04:36:08.136Z,313.29
2019-01-15T04:37:08.131Z,313.83
2019-01-15T04:38:08.115Z,313.54
2019-01-15T04:39:08.119Z,314.43
2019-01-15T04:40:08.090Z,312.97
2019-01-15T04:41:08.071Z,313.45
2019-01-15T04:42:08.061Z,313.52
2019-01-15T04:43:08.097Z,313.73
2019-01-15T04:44:08.057Z,313.59
2019-01-15T04:45:08.053Z,313.63
2019-01-15T04:46:08.036Z,313.80
2019-01-15T04:47:08.011Z,313.44
2019-01-15T04:48:07.994Z,314.56
2019-01-15T04:49:08.108Z,313.92
2019-01-15T04:50:07.984Z,313.48
2019-01-15T04:51:07.979Z,313.93
2019-01-15T04:52:07.955Z,313.82
2019-01-15T04:53:07.956Z,314.11
2019-01-15T04:54:07.937Z,313.29
2019-01-15T04:55:07.970Z,313.39
2019-01-15T04:56:07.924Z,313.55
2019-01-15T04:57:07.926Z,313.59
2019-01-15T04:58:07.899Z,313.31
2019-01-15T04:59:07.890Z,313.71
2019-01-15T05:00:07.869Z,313.34
2019-01-15T05:01:07.885Z,313.13
2019-01-15T05:02:07.863Z,313.26
2019-01-15T05:03:07.853Z,313.40
2019-01-15T05:04:07.842Z,315.39
2019-01-15T05:05:07.816Z,313.90
2019-01-15T05:06:07.847Z,313.55
2019-01-15T05:07:07.805Z,313.31
2019-01-15T05:08:07.801Z,313.43
2019-01-15T05:09:07.789Z,313.22
2019-01-15T05:10:07.775Z,313.28
2019-01-15T05:11:07.749Z,312.74
2019-01-15T05:12:07.759Z,313.51
2019-01-15T05:13:07.742Z,312.86
2019-01-15T05:14:07.732Z,313.21
2019-01-15T05:15:07.715Z,313.49
2019-01-15T05:16:07.718Z,313.60
2019-01-15T05:17:07.722Z,314.18
2019-01-15T05:18:07.682Z,313.78
2019-01-15T05:19:07.666Z,312.88
2019-01-15T05:20:07.650Z,313.88
2019-01-15T05:21:07.676Z,313.43
2019-01-15T05:22:07.642Z,316.36
2019-01-15T05:23:07.641Z,313.94
2019-01-15T05:24:07.609Z,315.31
2019-01-15T05:25:07.604Z,313.94
2019-01-15T05:26:07.587Z,313.35
2019-01-15T05:27:07.589Z,313.23
2019-01-15T05:28:07.592Z,313.57
2019-01-15T05:29:07.561Z,313.25
2019-01-15T05:30:07.562Z,312.98
2019-01-15T05:31:07.534Z,318.78
2019-01-15T05:32:07.516Z,317.77
2019-01-15T05:33:07.538Z,314.33
2019-01-15T05:34:07.505Z,314.57
2019-01-15T05:35:07.505Z,314.59
2019-01-15T05:36:07.481Z,315.04
2019-01-15T05:37:07.469Z,314.58
2019-01-15T05:38:07.472Z,314.03
2019-01-15T05:39:07.456Z,314.56
2019-01-15T05:40:07.448Z,314.20
2019-01-15T05:41:07.433Z,314.06
2019-01-15T05:42:07.419Z,314.05
2019-01-15T05:43:07.426Z,313.90
2019-01-15T05:44:07.389Z,313.89
2019-01-15T05:45:07.394Z,314.10
2019-01-15T05:46:07.372Z,314.73
2019-01-15T05:47:07.365Z,314.13
2019-01-15T05:48:07.383Z,314.20
2019-01-15T05:49:07.353Z,313.76
2019-01-15T05:50:07.329Z,314.02
2019-01-15T05:51:07.331Z,313.94
2019-01-15T05:52:07.315Z,314.32
2019-01-15T05:53:07.332Z,314.14
2019-01-15T05:54:07.291Z,313.94
2019-01-15T05:55:07.286Z,314.66
2019-01-15T05:56:07.295Z,313.65
2019-01-15T05:57:07.258Z,313.38
2019-01-15T05:58:07.255Z,313.42
2019-01-15T05:59:07.231Z,313.73
2019-01-15T06:00:07.228Z,313.47
2019-01-15T06:01:07.220Z,313.72
2019-01-15T06:02:07.208Z,314.26
2019-01-15T06:03:07.203Z,313.09
2019-01-15T06:04:07.187Z,313.07
2019-01-15T06:05:07.166Z,312.68
2019-01-15T06:06:07.165Z,313.33
2019-01-15T06:07:07.146Z,313.71
2019-01-15T06:08:07.166Z,313.72
2019-01-15T06:09:07.111Z,314.14
2019-01-15T06:10:07.106Z,313.86
2019-01-15T06:11:07.102Z,313.75
2019-01-15T06:12:07.097Z,313.61
2019-01-15T06:13:07.105Z,313.89
2019-01-15T06:14:07.073Z,314.15
2019-01-15T06:15:07.070Z,314.30
2019-01-15T06:16:07.044Z,314.63
2019-01-15T06:17:07.032Z,314.02
2019-01-15T06:18:07.047Z,313.10
2019-01-15T06:19:07.016Z,314.98
2019-01-15T06:20:07.015Z,314.92
2019-01-15T06:21:06.997Z,313.83
2019-01-15T06:22:07.000Z,313.45
2019-01-15T06:23:06.971Z,314.59
2019-01-15T06:24:06.994Z,314.01
2019-01-15T06:25:07.004Z,314.29
2019-01-15T06:26:06.941Z,313.89
2019-01-15T06:27:06.928Z,314.16
2019-01-15T06:28:06.936Z,313.97
2019-01-15T06:29:06.906Z,313.37
2019-01-15T06:30:06.930Z,312.93
2019-01-15T06:31:06.930Z,314.54
2019-01-15T06:32:06.907Z,314.91
2019-01-15T06:33:06.875Z,315.48
2019-01-15T06:34:06.865Z,315.59
2019-01-15T06:35:06.890Z,315.39
2019-01-15T06:36:06.851Z,316.61
2019-01-15T06:37:06.819Z,314.67
2019-01-15T06:38:06.819Z,314.77
2019-01-15T06:39:06.827Z,315.80
2019-01-15T06:40:06.793Z,315.00
2019-01-15T06:41:06.796Z,316.28
2019-01-15T06:42:06.833Z,315.12
2019-01-15T06:43:06.770Z,316.46
2019-01-15T06:44:06.770Z,315.00
2019-01-15T06:45:06.736Z,314.62
2019-01-15T06:46:06.761Z,314.65
2019-01-15T06:47:06.704Z,313.83
2019-01-15T06:48:06.688Z,313.97
2019-01-15T06:49:06.692Z,314.30
2019-01-15T06:50:06.672Z,313.84
2019-01-15T06:51:06.710Z,314.59
2019-01-15T06:52:06.658Z,314.18
2019-01-15T06:53:06.643Z,315.15
2019-01-15T06:54:06.653Z,314.83
2019-01-15T06:55:06.615Z,314.34
2019-01-15T06:56:06.610Z,315.28
2019-01-15T06:57:06.648Z,314.02
2019-01-15T06:58:06.594Z,314.05
2019-01-15T06:59:06.577Z,315.96
2019-01-15T07:00:06.561Z,314.94
2019-01-15T07:01:06.552Z,313.31
2019-01-15T07:02:06.539Z,314.93
2019-01-15T07:03:06.549Z,314.51
2019-01-15T07:04:06.522Z,315.35
2019-01-15T07:05:06.528Z,314.97
2019-01-15T07:06:06.501Z,313.93
2019-01-15T07:07:06.504Z,314.73
2019-01-15T07:08:06.499Z,314.37
2019-01-15T07:09:06.459Z,314.35
2019-01-15T07:10:06.453Z,314.99
2019-01-15T07:11:06.442Z,315.65
2019-01-15T07:12:06.468Z,315.56
2019-01-15T07:13:06.412Z,314.47
2019-01-15T07:14:06.401Z,314.76
2019-01-15T07:15:06.404Z,314.69
2019-01-15T07:16:06.387Z,314.75
2019-01-15T07:17:06.381Z,314.80
2019-01-15T07:18:06.387Z,317.05
2019-01-15T07:19:06.347Z,314.36
2019-01-15T07:20:06.341Z,313.44
2019-01-15T07:21:06.338Z,315.33
2019-01-15T07:22:06.359Z,314.97
2019-01-15T07:23:06.322Z,315.76
2019-01-15T07:24:06.316Z,315.14
2019-01-15T07:25:06.296Z,314.51
2019-01-15T07:26:06.287Z,314.44
2019-01-15T07:27:06.259Z,315.56
2019-01-15T07:28:06.293Z,314.48
2019-01-15T07:29:06.249Z,314.31
2019-01-15T07:30:06.241Z,313.91
2019-01-15T07:31:06.215Z,314.55
2019-01-15T07:32:06.221Z,314.24
2019-01-15T07:33:06.230Z,313.71
2019-01-15T07:34:06.181Z,313.71
2019-01-15T07:35:06.188Z,313.82
2019-01-15T07:36:06.180Z,314.15
2019-01-15T07:37:06.155Z,315.73
2019-01-15T07:38:06.150Z,314.73
2019-01-15T07:39:06.137Z,314.60
2019-01-15T07:40:06.121Z,314.99
2019-01-15T07:41:06.116Z,314.26
2019-01-15T07:42:06.098Z,314.67
2019-01-15T07:43:06.103Z,314.48
2019-01-15T07:44:06.107Z,314.64
2019-01-15T07:45:06.075Z,314.61
2019-01-15T07:46:06.052Z,314.44
2019-01-15T07:47:06.067Z,315.88
2019-01-15T07:48:06.052Z,314.42
2019-01-15T07:49:06.077Z,314.20
2019-01-15T07:50:06.021Z,314.32
2019-01-15T07:51:06.007Z,313.64
2019-01-15T07:52:05.985Z,313.23
2019-01-15T07:53:05.976Z,314.45
2019-01-15T07:54:05.970Z,314.58
2019-01-15T07:55:06.947Z,315.18
2019-01-15T07:56:05.975Z,314.27
2019-01-15T07:57:05.941Z,314.00
2019-01-15T07:58:05.941Z,314.29
2019-01-15T07:59:05.919Z,313.59
2019-01-15T08:00:05.931Z,314.54
2019-01-15T08:01:07.426Z,315.29
2019-01-15T08:02:05.900Z,314.41
2019-01-15T08:03:05.875Z,314.43
2019-01-15T08:04:05.861Z,313.60
2019-01-15T08:05:05.850Z,313.90
2019-01-15T08:06:05.867Z,314.55
2019-01-15T08:07:05.856Z,314.39
2019-01-15T08:08:05.832Z,314.35
2019-01-15T08:09:05.819Z,315.30
2019-01-15T08:10:05.812Z,314.50
2019-01-15T08:11:05.814Z,314.77
2019-01-15T08:12:05.788Z,313.61
2019-01-15T08:13:05.764Z,315.06
2019-01-15T08:14:11.843Z,314.93
2019-01-15T08:15:06.759Z,315.23
2019-01-15T08:16:05.741Z,314.27
2019-01-15T08:17:05.735Z,314.13
2019-01-15T08:18:05.705Z,314.47
2019-01-15T08:19:05.713Z,314.04
2019-01-15T08:20:05.693Z,314.52
2019-01-15T08:21:05.677Z,313.65
2019-01-15T08:22:05.700Z,313.45
2019-01-15T08:23:05.657Z,314.05
2019-01-15T08:24:05.636Z,315.06
2019-01-15T08:25:05.623Z,313.51
2019-01-15T08:26:05.618Z,314.24
2019-01-15T08:27:05.618Z,314.25
2019-01-15T08:28:05.643Z,314.15
2019-01-15T08:29:05.596Z,314.73
2019-01-15T08:30:05.581Z,314.46
2019-01-15T08:31:05.562Z,315.35
2019-01-15T08:32:05.570Z,314.86
2019-01-15T08:33:05.583Z,314.26
2019-01-15T08:34:05.544Z,313.46
2019-01-15T08:35:05.535Z,315.34
2019-01-15T08:36:05.512Z,314.75
2019-01-15T08:37:05.500Z,314.73
2019-01-15T08:38:05.490Z,314.92
2019-01-15T08:39:05.513Z,314.35
2019-01-15T08:40:05.485Z,314.40
2019-01-15T08:41:05.471Z,313.84
2019-01-15T08:42:05.462Z,315.46
2019-01-15T08:43:05.435Z,313.38
2019-01-15T08:44:05.451Z,314.44
2019-01-15T08:45:05.415Z,314.43
2019-01-15T08:46:05.404Z,314.25
2019-01-15T08:47:05.396Z,314.79
2019-01-15T08:48:05.389Z,314.18
2019-01-15T08:49:05.372Z,313.82
2019-01-15T08:50:05.377Z,314.18
2019-01-15T08:51:05.360Z,313.80
2019-01-15T08:52:05.345Z,314.69
2019-01-15T08:53:05.328Z,314.93
2019-01-15T08:54:05.327Z,314.87
2019-01-15T08:55:05.342Z,313.83
2019-01-15T08:56:05.297Z,313.59
2019-01-15T08:57:05.278Z,314.64
2019-01-15T08:58:05.283Z,313.99
2019-01-15T08:59:05.273Z,313.94
2019-01-15T09:00:05.301Z,314.18
2019-01-15T09:01:05.247Z,314.56
2019-01-15T09:02:05.231Z,313.28
2019-01-15T09:03:05.219Z,313.33
2019-01-15T09:04:05.236Z,313.61
2019-01-15T09:05:05.218Z,314.37
2019-01-15T09:06:05.227Z,315.62
2019-01-15T09:07:05.181Z,314.23
2019-01-15T09:08:05.175Z,314.24
2019-01-15T09:09:05.156Z,314.35
2019-01-15T09:10:05.147Z,313.57
2019-01-15T09:11:05.181Z,313.40
2019-01-15T09:12:05.144Z,313.97
2019-01-15T09:13:05.121Z,316.51
2019-01-15T09:14:05.113Z,316.29
2019-01-15T09:15:05.097Z,315.84
2019-01-15T09:16:05.114Z,314.17
2019-01-15T09:17:10.995Z,314.52
2019-01-15T09:18:06.055Z,314.35
2019-01-15T09:19:05.066Z,314.00
2019-01-15T09:20:05.043Z,314.46
2019-01-15T09:21:05.018Z,314.88
2019-01-15T09:22:05.055Z,315.25
2019-01-15T09:23:05.012Z,315.28
2019-01-15T09:24:05.012Z,315.42
2019-01-15T09:25:04.987Z,314.31
2019-01-15T09:26:04.978Z,314.10
2019-01-15T09:27:04.956Z,313.93
2019-01-15T09:28:04.973Z,314.00
2019-01-15T09:29:04.948Z,314.09
2019-01-15T09:30:04.946Z,314.07
2019-01-15T09:31:04.922Z,313.94
2019-01-15T09:32:05.024Z,313.69
2019-01-15T09:33:04.936Z,316.65
2019-01-15T09:34:04.897Z,315.13
2019-01-15T09:35:04.872Z,313.64
2019-01-15T09:36:04.860Z,313.73
2019-01-15T09:37:04.879Z,313.91
2019-01-15T09:38:04.868Z,313.35
2019-01-15T09:39:04.823Z,313.91
2019-01-15T09:40:04.813Z,313.40
2019-01-15T09:41:04.805Z,313.82
2019-01-15T09:42:04.806Z,314.60
2019-01-15T09:43:04.794Z,314.16
2019-01-15T09:44:04.775Z,313.94
2019-01-15T09:45:04.783Z,313.33
2019-01-15T09:46:04.750Z,313.95
2019-01-15T09:47:04.742Z,313.57
2019-01-15T09:48:04.722Z,314.96
2019-01-15T09:49:04.708Z,315.31
2019-01-15T09:50:04.729Z,314.53
2019-01-15T09:51:04.702Z,314.31
2019-01-15T09:52:04.690Z,318.34
2019-01-15T09:53:04.677Z,315.40
2019-01-15T09:54:04.661Z,314.57
2019-01-15T09:55:04.679Z,314.64
2019-01-15T09:56:04.649Z,315.90
2019-01-15T09:57:04.644Z,315.15
2019-01-15T09:58:04.628Z,315.42
2019-01-15T09:59:05.712Z,315.61
2019-01-15T10:00:04.619Z,315.70
2019-01-15T10:01:04.598Z,314.69
2019-01-15T10:02:04.581Z,314.78
2019-01-15T10:03:04.598Z,314.66
2019-01-15T10:04:04.544Z,314.61
2019-01-15T10:05:04.545Z,315.00
2019-01-15T10:06:04.528Z,315.61
2019-01-15T10:07:04.531Z,314.58
2019-01-15T10:08:04.489Z,315.38
2019-01-15T10:09:04.488Z,315.21
2019-01-15T10:10:04.481Z,315.23
2019-01-15T10:11:04.487Z,316.15
2019-01-15T10:12:04.456Z,315.08
2019-01-15T10:13:04.439Z,314.52
2019-01-15T10:14:04.439Z,315.84
2019-01-15T10:15:04.444Z,315.00
2019-01-15T10:16:04.435Z,317.08
2019-01-15T10:17:04.410Z,316.24
2019-01-15T10:18:04.414Z,315.19
2019-01-15T10:19:04.379Z,314.28
2019-01-15T10:20:04.364Z,315.04
2019-01-15T10:21:04.360Z,315.25
2019-01-15T10:22:04.347Z,315.98
2019-01-15T10:23:04.364Z,315.44
2019-01-15T10:24:04.329Z,314.79
2019-01-15T10:25:04.311Z,314.85
2019-01-15T10:26:04.295Z,314.90
2019-01-15T10:27:04.294Z,314.39
2019-01-15T10:28:04.283Z,314.66
2019-01-15T10:29:04.307Z,315.02
2019-01-15T10:30:04.256Z,315.13
2019-01-15T10:31:04.261Z,316.03
2019-01-15T10:32:04.233Z,314.53
2019-01-15T10:33:04.259Z,314.23
2019-01-15T10:34:04.220Z,314.84
2019-01-15T10:35:04.229Z,315.28
2019-01-15T10:36:04.235Z,315.12
2019-01-15T10:37:04.190Z,315.33
2019-01-15T10:38:04.177Z,314.79
2019-01-15T10:39:04.183Z,314.63
2019-01-15T10:40:04.165Z,314.97
2019-01-15T10:41:04.139Z,314.78
2019-01-15T10:42:04.125Z,315.42
2019-01-15T10:43:04.112Z,316.22
2019-01-15T10:44:04.131Z,314.75
2019-01-15T10:45:04.092Z,314.86
2019-01-15T10:46:04.080Z,315.29
2019-01-15T10:47:04.079Z,316.57
2019-01-15T10:48:04.066Z,315.32
2019-01-15T10:49:04.053Z,314.80
2019-01-15T10:50:04.059Z,314.84
2019-01-15T10:51:04.026Z,315.02
2019-01-15T10:52:04.014Z,314.65
2019-01-15T10:53:04.002Z,316.07
2019-01-15T10:54:03.988Z,316.34
2019-01-15T10:55:04.010Z,315.55
2019-01-15T10:56:03.971Z,315.61
2019-01-15T10:57:03.970Z,314.83
2019-01-15T10:58:03.961Z,314.92
2019-01-15T10:59:03.945Z,315.63
2019-01-15T11:00:03.960Z,315.22
2019-01-15T11:01:03.927Z,316.03
2019-01-15T11:02:03.907Z,314.30
2019-01-15T11:03:03.905Z,314.92
2019-01-15T11:04:03.887Z,314.55
2019-01-15T11:05:03.872Z,314.73
2019-01-15T11:06:03.875Z,315.18
2019-01-15T11:07:03.855Z,314.34
2019-01-15T11:08:03.840Z,315.79
2019-01-15T11:09:03.839Z,314.83
2019-01-15T11:10:03.845Z,315.30
2019-01-15T11:11:03.848Z,315.81
2019-01-15T11:12:03.798Z,315.59
2019-01-15T11:13:03.790Z,315.10
2019-01-15T11:14:03.781Z,315.31
2019-01-15T11:15:03.774Z,314.50
2019-01-15T11:16:03.763Z,314.25
2019-01-15T11:17:03.768Z,314.00
2019-01-15T11:18:03.732Z,314.25
2019-01-15T11:19:03.733Z,314.14
2019-01-15T11:20:03.721Z,315.19
2019-01-15T11:21:03.746Z,315.02
2019-01-15T11:22:03.725Z,315.10
2019-01-15T11:23:03.678Z,314.96
2019-01-15T11:24:03.668Z,315.39
2019-01-15T11:25:03.651Z,314.36
2019-01-15T11:26:03.646Z,313.78
2019-01-15T11:27:03.656Z,313.93
2019-01-15T11:28:03.642Z,314.08
2019-01-15T11:29:03.625Z,313.20
2019-01-15T11:30:03.601Z,313.87
2019-01-15T11:31:03.593Z,313.70
2019-01-15T11:32:03.606Z,313.57
2019-01-15T11:33:03.572Z,313.83
2019-01-15T11:34:03.571Z,314.30
2019-01-15T11:35:03.554Z,314.03
2019-01-15T11:36:03.540Z,314.62
2019-01-15T11:37:03.556Z,314.29
2019-01-15T11:38:03.534Z,313.71
2019-01-15T11:39:03.511Z,314.96
2019-01-15T11:40:03.515Z,314.77
2019-01-15T11:41:03.484Z,314.84
2019-01-15T11:42:03.482Z,314.73
2019-01-15T11:43:03.493Z,314.00
2019-01-15T11:44:03.462Z,314.44
2019-01-15T11:45:03.870Z,314.24
2019-01-15T11:46:03.447Z,314.12
2019-01-15T11:47:03.418Z,314.84
2019-01-15T11:48:03.426Z,314.50
2019-01-15T11:49:03.421Z,314.42
2019-01-15T11:50:03.385Z,314.40
2019-01-15T11:51:03.379Z,314.72
2019-01-15T11:52:03.393Z,314.40
2019-01-15T11:53:03.356Z,313.87
2019-01-15T11:54:03.341Z,314.63
2019-01-15T11:55:03.350Z,316.61
2019-01-15T11:56:03.315Z,316.49
2019-01-15T11:57:03.369Z,314.78
2019-01-15T11:58:03.307Z,314.45
2019-01-15T11:59:03.304Z,314.17
2019-01-15T12:00:03.322Z,314.44
2019-01-15T12:01:03.277Z,315.23
2019-01-15T12:02:03.262Z,314.51
2019-01-15T12:03:03.267Z,314.51
2019-01-15T12:04:03.318Z,314.23
2019-01-15T12:05:03.271Z,314.23
2019-01-15T12:06:03.235Z,315.32
2019-01-15T12:07:03.206Z,314.91
2019-01-15T12:08:03.249Z,314.93
2019-01-15T12:09:03.222Z,315.16
2019-01-15T12:10:03.198Z,314.97
2019-01-15T12:11:03.179Z,314.47
2019-01-15T12:12:03.196Z,315.96
2019-01-15T12:13:03.156Z,315.21
2019-01-15T12:14:03.146Z,315.62
2019-01-15T12:15:03.146Z,315.65
2019-01-15T12:16:03.111Z,315.72
2019-01-15T12:17:03.135Z,315.85
2019-01-15T12:18:03.099Z,315.19
2019-01-15T12:19:03.091Z,317.15
2019-01-15T12:20:03.071Z,316.20
2019-01-15T12:21:03.087Z,316.59
2019-01-15T12:22:03.069Z,315.40
2019-01-15T12:23:03.050Z,314.68
2019-01-15T12:24:03.038Z,315.04
2019-01-15T12:25:03.020Z,315.08
2019-01-15T12:26:03.022Z,315.38
2019-01-15T12:27:03.027Z,314.69
2019-01-15T12:28:02.980Z,315.38